Time;durP1;ratioP1;P1;durP2;ratioP2;P2;SDS_P1;SDS_P2;PMS_P1;PMS_P2;Temp;Humidity;BMP_temperature;BMP_pressure;BME280_temperature;BME280_humidity;BME280_pressure;Samples;Min_cycle;Max_cycle;Signal;HPM_P1;HPM_P2
2021/01/07 00:00:17;;;;;;;9.20;6.17;;;;;;;1.50;100.00;100396.38;4974964;28;20640;-73
2021/01/07 00:02:43;;;;;;;7.33;5.57;;;;;;;1.74;100.00;100392.84;4975763;28;20582;-73
2021/01/07 00:05:09;;;;;;;8.10;6.30;;;;;;;1.78;100.00;100388.72;4990472;28;20197;-73
2021/01/07 00:07:38;;;;;;;7.47;6.03;;;;;;;1.68;100.00;100383.03;5008244;28;20213;-72
2021/01/07 00:10:07;;;;;;;7.73;5.83;;;;;;;1.68;100.00;100375.81;4991143;28;20811;-73
2021/01/07 00:12:34;;;;;;;8.23;6.13;;;;;;;1.68;100.00;100377.69;4992045;28;20206;-73
2021/01/07 00:15:00;;;;;;;7.83;6.07;;;;;;;1.76;100.00;100377.38;4972049;28;20286;-72
2021/01/07 00:17:26;;;;;;;8.13;6.03;;;;;;;1.69;100.00;100371.31;4955918;28;20226;-72
2021/01/07 00:19:52;;;;;;;8.23;6.23;;;;;;;1.70;100.00;100368.38;4971550;28;20194;-73
2021/01/07 00:22:17;;;;;;;8.63;5.80;;;;;;;1.72;100.00;100370.84;4955258;28;20236;-72
2021/01/07 00:24:43;;;;;;;9.03;6.83;;;;;;;1.76;100.00;100377.38;4971642;28;20190;-73
2021/01/07 00:27:08;;;;;;;9.60;6.93;;;;;;;1.47;100.00;100380.78;4987577;28;20226;-72
2021/01/07 00:29:36;;;;;;;9.67;6.53;;;;;;;1.60;100.00;100380.66;4988517;28;20190;-73
2021/01/07 00:32:06;;;;;;;9.27;6.73;;;;;;;1.75;100.00;100378.44;4987390;28;20215;-72
2021/01/07 00:34:32;;;;;;;11.03;6.97;;;;;;;1.84;100.00;100364.53;4987741;28;20225;-73
2021/01/07 00:37:01;;;;;;;10.67;6.77;;;;;;;1.62;100.00;100367.88;4955430;28;20361;-73
2021/01/07 00:39:26;;;;;;;10.23;7.03;;;;;;;1.74;100.00;100376.78;4972459;28;20197;-73
2021/01/07 00:41:58;;;;;;;10.07;6.70;;;;;;;1.71;100.00;100379.94;4974397;28;20244;-73
2021/01/07 00:44:26;;;;;;;10.07;6.67;;;;;;;1.84;100.00;100371.75;4972586;28;20189;-73
2021/01/07 00:46:52;;;;;;;10.70;7.07;;;;;;;1.79;100.00;100371.59;4987099;28;20251;-73
2021/01/07 00:49:20;;;;;;;9.70;6.30;;;;;;;1.72;100.00;100379.72;4988489;28;20182;-73
2021/01/07 00:51:46;;;;;;;11.27;7.50;;;;;;;1.73;100.00;100369.81;4987461;28;20281;-73
2021/01/07 00:54:23;;;;;;;10.50;7.07;;;;;;;1.63;100.00;100369.50;4971086;28;20190;-73
2021/01/07 00:56:52;;;;;;;9.27;6.43;;;;;;;1.75;100.00;100370.41;4987158;28;20225;-72
2021/01/07 00:59:25;;;;;;;9.93;7.00;;;;;;;1.77;100.00;100357.63;4971363;28;20303;-73
2021/01/07 01:01:50;;;;;;;11.23;6.83;;;;;;;1.71;100.00;100361.19;4986866;28;20222;-73
2021/01/07 01:04:16;;;;;;;11.23;6.27;;;;;;;1.79;100.00;100358.22;4970522;28;20583;-72
2021/01/07 01:06:43;;;;;;;9.90;6.93;;;;;;;1.88;100.00;100356.88;4970857;28;20248;-73
2021/01/07 01:09:12;;;;;;;10.70;6.67;;;;;;;1.82;100.00;100357.78;4971299;28;20248;-73
2021/01/07 01:11:49;;;;;;;10.07;6.53;;;;;;;1.68;100.00;100361.63;4989742;28;20262;-73
2021/01/07 01:14:18;;;;;;;9.17;6.40;;;;;;;1.79;100.00;100358.22;4971111;28;20272;-73
2021/01/07 01:16:48;;;;;;;8.50;6.27;;;;;;;1.73;100.00;100353.75;4986996;28;20696;-73
2021/01/07 01:19:16;;;;;;;7.93;6.07;;;;;;;1.72;100.00;100346.75;4990207;28;20192;-73
2021/01/07 01:21:42;;;;;;;7.93;6.03;;;;;;;1.69;100.00;100344.53;4970321;28;20602;-73
2021/01/07 01:24:09;;;;;;;9.27;6.13;;;;;;;1.68;100.00;100358.94;4971129;28;20190;-73
2021/01/07 01:26:34;;;;;;;8.37;5.60;;;;;;;1.74;100.00;100350.88;4970292;28;20218;-73
2021/01/07 01:29:00;;;;;;;7.77;5.93;;;;;;;1.71;100.00;100356.66;4971261;28;20205;-73
2021/01/07 01:31:28;;;;;;;10.27;6.10;;;;;;;1.83;100.00;100351.38;4969986;28;20272;-73
2021/01/07 01:34:00;;;;;;;8.97;6.30;;;;;;;1.74;100.00;100350.03;4971192;28;20192;-73
2021/01/07 01:36:29;;;;;;;8.53;6.03;;;;;;;1.75;100.00;100354.34;4986235;28;20369;-73
2021/01/07 01:38:56;;;;;;;7.83;5.60;;;;;;;1.79;100.00;100347.50;4986960;28;20613;-72
2021/01/07 01:41:27;;;;;;;9.03;6.10;;;;;;;1.74;100.00;100361.56;4989780;28;20225;-73
2021/01/07 01:43:52;;;;;;;9.30;6.50;;;;;;;1.72;100.00;100357.47;4990753;28;20217;-73
2021/01/07 01:46:18;;;;;;;7.90;5.73;;;;;;;1.75;100.00;100355.16;4989328;28;20222;-73
2021/01/07 01:48:48;;;;;;;7.67;5.70;;;;;;;1.87;100.00;100355.22;4990364;28;20178;-72
2021/01/07 01:51:16;;;;;;;9.17;6.20;;;;;;;1.66;100.00;100363.72;4974242;28;20230;-73
2021/01/07 01:53:41;;;;;;;9.50;6.33;;;;;;;1.95;100.00;100347.72;4990933;28;20200;-72
2021/01/07 01:56:09;;;;;;;8.63;6.07;;;;;;;1.86;100.00;100353.59;4974951;28;20513;-73
2021/01/07 01:58:35;;;;;;;9.30;5.67;;;;;;;1.91;100.00;100348.41;4976093;28;20182;-73
2021/01/07 02:01:01;;;;;;;8.60;5.83;;;;;;;1.86;100.00;100342.91;4990457;28;20360;-72
2021/01/07 02:03:27;;;;;;;9.27;6.07;;;;;;;1.78;100.00;100343.22;4991291;28;20287;-73
2021/01/07 02:05:58;;;;;;;9.73;6.03;;;;;;;1.85;100.00;100346.59;4989079;28;20694;-72
2021/01/07 02:08:23;;;;;;;10.07;6.63;;;;;;;1.90;100.00;100344.09;4975530;28;20183;-73
2021/01/07 02:10:49;;;;;;;9.60;6.70;;;;;;;1.88;100.00;100343.50;4973131;28;20597;-72
2021/01/07 02:13:17;;;;;;;9.27;6.60;;;;;;;1.92;100.00;100343.66;4973938;28;20301;-73
2021/01/07 02:15:42;;;;;;;8.17;5.53;;;;;;;1.93;100.00;100347.94;4976359;28;20220;-72
2021/01/07 02:18:10;;;;;;;9.17;6.73;;;;;;;1.66;100.00;100348.47;4965616;28;20202;-73
2021/01/07 02:20:38;;;;;;;9.37;6.63;;;;;;;1.75;100.00;100346.31;4974762;28;20222;-72
2021/01/07 02:23:04;;;;;;;8.20;6.03;;;;;;;1.73;100.00;100348.41;4959495;28;20643;-72
2021/01/07 02:25:30;;;;;;;7.70;5.87;;;;;;;1.83;100.00;100354.03;4958556;28;20702;-72
2021/01/07 02:27:55;;;;;;;9.23;6.20;;;;;;;1.71;100.00;100356.66;4975463;28;20186;-73
2021/01/07 02:30:21;;;;;;;9.30;6.23;;;;;;;1.79;100.00;100350.19;4974689;28;20186;-72
2021/01/07 02:32:50;;;;;;;8.50;6.00;;;;;;;1.68;100.00;100340.22;4974304;28;20213;-72
2021/01/07 02:35:16;;;;;;;7.73;6.13;;;;;;;1.65;100.00;100333.47;4972976;28;20174;-72
2021/01/07 02:37:41;;;;;;;7.80;6.30;;;;;;;1.76;100.00;100343.44;4974012;28;20299;-72
2021/01/07 02:40:08;;;;;;;8.20;5.93;;;;;;;1.68;100.00;100335.69;4973534;28;20187;-73
2021/01/07 02:42:37;;;;;;;8.97;5.80;;;;;;;1.78;100.00;100343.22;4973438;28;20268;-73
2021/01/07 02:45:04;;;;;;;8.03;5.83;;;;;;;1.86;100.00;100340.22;4973416;28;20579;-73
2021/01/07 02:47:32;;;;;;;8.93;6.20;;;;;;;1.60;100.00;100343.19;4957044;28;20301;-73
2021/01/07 02:50:00;;;;;;;9.40;6.20;;;;;;;1.70;100.00;100343.50;4973771;28;20186;-72
2021/01/07 02:52:28;;;;;;;9.40;6.33;;;;;;;1.80;100.00;100338.44;4972994;28;20691;-73
2021/01/07 02:54:56;;;;;;;8.30;6.07;;;;;;;1.79;100.00;100342.97;4957850;28;20197;-73
2021/01/07 02:57:24;;;;;;;9.10;6.40;;;;;;;1.72;100.00;100336.91;4956885;28;20229;-73
2021/01/07 02:59:49;;;;;;;8.17;6.23;;;;;;;1.92;100.00;100342.81;4970950;28;20221;-73
2021/01/07 03:02:15;;;;;;;9.87;6.57;;;;;;;1.91;100.00;100342.00;4992058;28;20249;-72
2021/01/07 03:04:41;;;;;;;8.63;6.43;;;;;;;1.86;100.00;100337.53;5008782;28;20190;-73
2021/01/07 03:07:11;;;;;;;8.37;6.20;;;;;;;1.93;100.00;100344.47;4992458;28;20229;-72
2021/01/07 03:09:36;;;;;;;10.07;6.13;;;;;;;1.94;100.00;100336.19;4992745;28;20189;-73
2021/01/07 03:12:30;;;;;;;8.73;6.27;;;;;;;1.95;100.00;100337.81;4976352;28;20309;-73
2021/01/07 03:14:56;;;;;;;8.93;6.23;;;;;;;1.71;100.00;100340.59;4987990;28;20206;-73
2021/01/07 03:17:21;;;;;;;8.00;5.53;;;;;;;1.85;100.00;100334.06;4992354;28;20267;-72
2021/01/07 03:19:47;;;;;;;8.40;6.13;;;;;;;1.91;100.00;100339.31;4992723;28;20687;-73
2021/01/07 03:22:12;;;;;;;8.17;5.77;;;;;;;1.70;100.00;100332.78;4981656;28;20221;-72
2021/01/07 03:24:45;;;;;;;8.87;5.97;;;;;;;1.80;100.00;100333.91;4992415;28;20240;-72
2021/01/07 03:27:13;;;;;;;8.67;6.00;;;;;;;1.83;100.00;100333.44;4975518;28;20280;-73
2021/01/07 03:29:38;;;;;;;9.47;6.27;;;;;;;2.04;100.00;100333.78;4976777;28;20186;-73
2021/01/07 03:32:06;;;;;;;8.90;6.10;;;;;;;1.97;100.00;100330.38;4975235;28;20230;-73
2021/01/07 03:34:32;;;;;;;10.20;6.40;;;;;;;1.95;100.00;100331.66;4975978;28;20177;-73
2021/01/07 03:36:58;;;;;;;9.83;7.10;;;;;;;1.79;100.00;100331.44;4975460;28;20699;-73
2021/01/07 03:39:23;;;;;;;11.27;7.03;;;;;;;1.81;100.00;100324.81;5008795;28;20197;-73
2021/01/07 03:41:52;;;;;;;11.43;7.67;;;;;;;1.77;100.00;100322.81;4991226;28;20237;-72
2021/01/07 03:44:18;;;;;;;11.43;7.57;;;;;;;1.76;100.00;100322.00;4992488;28;20185;-73
2021/01/07 03:46:43;;;;;;;12.73;8.03;;;;;;;1.85;100.00;100325.19;4993038;28;20225;-72
2021/01/07 03:49:09;;;;;;;12.07;7.90;;;;;;;1.82;100.00;100325.66;4975811;28;20193;-72
2021/01/07 03:51:37;;;;;;;12.27;7.83;;;;;;;1.84;100.00;100318.22;4975787;28;20217;-72
2021/01/07 03:54:03;;;;;;;11.70;8.03;;;;;;;1.91;100.00;100319.78;4992854;28;20185;-73
2021/01/07 03:56:28;;;;;;;11.83;8.33;;;;;;;1.89;100.00;100326.38;4991234;28;20637;-72
2021/01/07 03:58:54;;;;;;;12.27;8.23;;;;;;;2.02;100.00;100327.84;4976283;28;20682;-72
2021/01/07 04:01:20;;;;;;;14.33;8.40;;;;;;;1.83;100.00;100328.09;4975838;28;20226;-73
2021/01/07 04:03:48;;;;;;;11.83;8.50;;;;;;;1.89;100.00;100326.38;4976094;28;20201;-72
2021/01/07 04:06:16;;;;;;;12.00;8.53;;;;;;;1.82;100.00;100326.47;4991152;28;20229;-72
2021/01/07 04:08:43;;;;;;;13.37;8.67;;;;;;;1.78;100.00;100325.28;4993285;28;20190;-73
2021/01/07 04:11:08;;;;;;;12.93;8.33;;;;;;;1.95;100.00;100324.44;4975991;28;20711;-72
2021/01/07 04:13:34;;;;;;;13.43;8.73;;;;;;;1.84;100.00;100320.91;4990791;28;20186;-73
2021/01/07 04:15:59;;;;;;;13.03;8.30;;;;;;;1.98;100.00;100320.50;4991468;28;20226;-73
2021/01/07 04:18:25;;;;;;;12.13;8.33;;;;;;;1.92;100.00;100322.22;4973122;28;20186;-72
2021/01/07 04:20:54;;;;;;;11.63;7.93;;;;;;;1.89;100.00;100321.03;5004363;28;20932;-73
2021/01/07 04:23:22;;;;;;;12.17;8.37;;;;;;;1.91;100.00;100314.41;4992018;28;20216;-73
2021/01/07 04:25:47;;;;;;;12.63;8.17;;;;;;;1.86;100.00;100316.13;4973803;28;20311;-73
2021/01/07 04:28:13;;;;;;;12.57;8.50;;;;;;;1.69;100.00;100309.75;4991660;28;20743;-72
2021/01/07 04:30:38;;;;;;;11.70;7.93;;;;;;;1.97;100.00;100319.66;4974703;28;20221;-72
2021/01/07 04:33:04;;;;;;;12.87;8.67;;;;;;;1.88;100.00;100314.84;4991365;28;20568;-72
2021/01/07 04:35:30;;;;;;;11.93;7.50;;;;;;;1.92;100.00;100316.88;4974399;28;20294;-72
2021/01/07 04:37:58;;;;;;;10.97;7.60;;;;;;;1.95;100.00;100320.94;4974995;28;20340;-73
2021/01/07 04:40:28;;;;;;;12.10;7.47;;;;;;;1.88;100.00;100314.84;4990637;28;20295;-72
2021/01/07 04:42:55;;;;;;;13.77;8.07;;;;;;;1.86;100.00;100310.78;4975518;28;20664;-72
2021/01/07 04:45:22;;;;;;;9.67;7.63;;;;;;;1.99;100.00;100317.59;5005863;28;20415;-73
2021/01/07 04:47:51;;;;;;;10.63;7.17;;;;;;;1.90;100.00;100303.94;4974889;28;20182;-73
2021/01/07 04:50:17;;;;;;;11.53;7.90;;;;;;;2.15;100.00;100311.63;4990503;28;20190;-73
2021/01/07 04:52:45;;;;;;;10.20;6.67;;;;;;;1.94;100.00;100311.28;4975367;28;20209;-73
2021/01/07 04:55:12;;;;;;;10.17;7.00;;;;;;;1.95;100.00;100305.69;4973898;28;20190;-73
2021/01/07 04:57:38;;;;;;;8.50;6.40;;;;;;;1.67;100.00;100311.84;4975056;28;20182;-73
2021/01/07 05:00:08;;;;;;;9.43;6.07;;;;;;;2.05;100.00;100308.66;4990812;28;20221;-72
2021/01/07 05:02:36;;;;;;;7.30;5.20;;;;;;;1.85;100.00;100314.47;4999760;28;20228;-72
2021/01/07 05:05:06;;;;;;;7.80;5.33;;;;;;;1.89;100.00;100311.16;5009263;28;20699;-73
2021/01/07 05:07:38;;;;;;;7.90;5.80;;;;;;;1.96;100.00;100317.25;5008728;28;20946;-72
2021/01/07 05:10:08;;;;;;;9.07;5.57;;;;;;;1.83;100.00;100309.34;5010687;28;20189;-72
2021/01/07 05:12:33;;;;;;;7.60;5.53;;;;;;;1.88;100.00;100314.03;4994032;28;20691;-72
2021/01/07 05:14:59;;;;;;;7.13;5.50;;;;;;;1.90;100.00;100309.28;5009787;28;20191;-72
2021/01/07 05:17:30;;;;;;;6.73;5.60;;;;;;;1.89;100.00;100310.31;5009839;28;20229;-72
2021/01/07 05:19:56;;;;;;;6.07;4.63;;;;;;;1.91;100.00;100309.06;4977807;28;20662;-72
2021/01/07 05:22:36;;;;;;;6.40;4.97;;;;;;;1.93;100.00;100312.31;5008927;28;20225;-72
2021/01/07 05:25:04;;;;;;;6.73;4.90;;;;;;;1.88;100.00;100300.66;4994088;28;20181;-72
2021/01/07 05:27:29;;;;;;;5.73;4.40;;;;;;;2.01;100.00;100304.78;4992969;28;20224;-72
2021/01/07 05:30:00;;;;;;;8.10;5.10;;;;;;;1.88;100.00;100304.16;5010198;28;20181;-72
2021/01/07 05:32:42;;;;;;;7.17;4.57;;;;;;;1.93;100.00;100307.78;5009222;28;20235;-72
2021/01/07 05:35:11;;;;;;;5.80;4.63;;;;;;;1.83;100.00;100300.50;5009186;28;20185;-73
2021/01/07 05:37:37;;;;;;;6.03;4.70;;;;;;;1.95;100.00;100304.88;4995109;28;20192;-73
2021/01/07 05:40:06;;;;;;;6.27;4.73;;;;;;;1.97;100.00;100300.13;4993634;28;20186;-73
2021/01/07 05:42:42;;;;;;;6.63;4.93;;;;;;;1.98;100.00;100307.13;4977779;28;20295;-73
2021/01/07 05:45:14;;;;;;;5.83;4.57;;;;;;;1.93;100.00;100302.44;5009509;28;20187;-73
2021/01/07 05:47:49;;;;;;;6.10;4.67;;;;;;;1.86;100.00;100305.44;5009961;28;20912;-73
2021/01/07 05:50:15;;;;;;;5.33;4.03;;;;;;;1.89;100.00;100311.16;4996092;28;20204;-74
2021/01/07 05:52:42;;;;;;;7.03;4.63;;;;;;;1.77;100.00;100301.41;4997597;28;20188;-73
2021/01/07 05:55:09;;;;;;;6.17;4.53;;;;;;;1.79;100.00;100302.81;5012343;28;20188;-73
2021/01/07 05:57:36;;;;;;;5.57;4.60;;;;;;;1.96;100.00;100306.53;4997323;28;20189;-73
2021/01/07 06:00:22;;;;;;;7.23;4.77;;;;;;;1.98;100.00;100307.94;4981715;28;20225;-73
2021/01/07 06:02:50;;;;;;;6.83;4.83;;;;;;;2.07;100.00;100305.75;4974380;28;20667;-74
2021/01/07 06:05:16;;;;;;;6.67;4.60;;;;;;;1.86;100.00;100300.06;4973790;28;20194;-74
2021/01/07 06:07:42;;;;;;;5.13;4.03;;;;;;;1.90;100.00;100301.25;4974643;28;20265;-73
2021/01/07 06:10:12;;;;;;;5.03;3.87;;;;;;;1.92;100.00;100295.47;4974050;28;20193;-73
2021/01/07 06:12:37;;;;;;;5.97;4.67;;;;;;;1.88;100.00;100304.16;4974708;28;20211;-72
2021/01/07 06:15:05;;;;;;;6.17;4.80;;;;;;;1.99;100.00;100301.53;4974259;28;20186;-73
2021/01/07 06:17:31;;;;;;;5.43;4.37;;;;;;;2.01;100.00;100310.13;4973793;28;20618;-73
2021/01/07 06:19:57;;;;;;;5.87;4.37;;;;;;;1.98;100.00;100305.25;4974555;28;20178;-73
2021/01/07 06:22:25;;;;;;;5.27;4.27;;;;;;;2.14;100.00;100299.25;4973248;28;20289;-74
2021/01/07 06:24:53;;;;;;;7.13;4.80;;;;;;;1.93;100.00;100301.63;4973955;28;20182;-73
2021/01/07 06:27:29;;;;;;;6.63;5.00;;;;;;;1.91;100.00;100304.50;4973755;28;20281;-72
2021/01/07 06:30:07;;;;;;;6.67;5.13;;;;;;;2.04;100.00;100307.03;4966855;28;20178;-73
2021/01/07 06:32:33;;;;;;;5.90;4.60;;;;;;;1.89;100.00;100313.00;4999409;28;20225;-73
2021/01/07 06:35:01;;;;;;;6.80;4.47;;;;;;;2.02;100.00;100305.63;4976956;28;20216;-72
2021/01/07 06:37:37;;;;;;;6.30;4.77;;;;;;;1.99;100.00;100306.06;4976748;28;20269;-73
2021/01/07 06:40:04;;;;;;;6.53;4.87;;;;;;;1.89;100.00;100310.31;4977335;28;20185;-72
2021/01/07 06:42:32;;;;;;;6.40;4.90;;;;;;;1.96;100.00;100311.88;4960939;28;20597;-73
2021/01/07 06:45:01;;;;;;;6.37;5.00;;;;;;;1.90;100.00;100311.97;4977508;28;20188;-73
2021/01/07 06:47:28;;;;;;;7.03;5.27;;;;;;;1.97;100.00;100317.00;4973899;28;20225;-73
2021/01/07 06:49:54;;;;;;;8.53;5.47;;;;;;;1.99;100.00;100309.56;4976836;28;20196;-73
2021/01/07 06:52:25;;;;;;;7.63;5.70;;;;;;;2.07;100.00;100319.13;4976399;28;20312;-75
2021/01/07 06:54:54;;;;;;;6.83;5.40;;;;;;;2.04;100.00;100309.69;4992864;28;20236;-73
2021/01/07 06:57:22;;;;;;;8.73;6.30;;;;;;;1.97;100.00;100314.31;4992947;28;20228;-73
2021/01/07 06:59:56;;;;;;;7.53;5.60;;;;;;;1.87;100.00;100313.25;4977204;28;20186;-73
2021/01/07 07:02:24;;;;;;;8.70;6.30;;;;;;;1.94;100.00;100313.94;4976550;28;20590;-72
2021/01/07 07:05:04;;;;;;;7.40;5.50;;;;;;;1.97;100.00;100319.66;4977979;28;20236;-73
2021/01/07 07:07:39;;;;;;;6.40;4.90;;;;;;;2.01;100.00;100314.69;4998924;28;20618;-74
2021/01/07 07:10:16;;;;;;;7.13;5.37;;;;;;;1.87;100.00;100318.59;5029143;28;20678;-74
2021/01/07 07:12:43;;;;;;;6.70;5.10;;;;;;;1.99;100.00;100328.28;5013276;28;20694;-73
2021/01/07 07:15:09;;;;;;;7.40;5.07;;;;;;;1.92;100.00;100321.38;4994391;28;20187;-74
2021/01/07 07:17:39;;;;;;;8.10;5.47;;;;;;;2.14;100.00;100326.03;4996165;28;20184;-73
2021/01/07 07:20:09;;;;;;;6.73;4.97;;;;;;;2.01;100.00;100320.84;5011354;28;20645;-74
2021/01/07 07:22:41;;;;;;;7.90;5.40;;;;;;;1.98;100.00;100326.69;4995418;28;20252;-73
2021/01/07 07:25:25;;;;;;;8.20;5.20;;;;;;;2.02;100.00;100327.03;4994332;28;20177;-73
2021/01/07 07:27:54;;;;;;;6.83;4.87;;;;;;;1.95;100.00;100332.47;4996347;28;20188;-73
2021/01/07 07:30:26;;;;;;;7.87;5.67;;;;;;;2.01;100.00;100326.22;4978368;28;20189;-73
2021/01/07 07:32:54;;;;;;;7.03;5.17;;;;;;;1.97;100.00;100330.38;5011996;28;20204;-73
2021/01/07 07:35:24;;;;;;;7.03;5.40;;;;;;;2.11;100.00;100326.50;5012017;28;20174;-74
2021/01/07 07:37:50;;;;;;;8.37;5.73;;;;;;;2.01;100.00;100334.25;4997214;28;20557;-73
2021/01/07 07:40:21;;;;;;;6.77;5.17;;;;;;;1.90;100.00;100341.41;5013362;28;20208;-73
2021/01/07 07:42:47;;;;;;;6.40;4.60;;;;;;;2.11;100.00;100345.25;5030666;28;20213;-73
2021/01/07 07:45:13;;;;;;;5.50;4.33;;;;;;;2.08;100.00;100340.34;4996826;28;20168;-73
2021/01/07 07:47:41;;;;;;;6.83;5.10;;;;;;;2.17;100.00;100336.31;5014698;28;20399;-73
2021/01/07 07:50:07;;;;;;;6.57;4.27;;;;;;;2.12;100.00;100343.38;4997854;28;20192;-74
2021/01/07 07:52:35;;;;;;;6.13;4.30;;;;;;;2.12;100.00;100348.75;5013502;28;20208;-73
2021/01/07 07:55:04;;;;;;;5.83;4.23;;;;;;;2.01;100.00;100344.94;4996261;28;20188;-72
2021/01/07 07:57:32;;;;;;;7.00;4.47;;;;;;;2.08;100.00;100350.25;4994815;28;20278;-73
2021/01/07 08:00:17;;;;;;;6.10;4.27;;;;;;;1.95;100.00;100353.88;5012239;28;20668;-73
2021/01/07 08:02:43;;;;;;;5.70;4.10;;;;;;;2.06;100.00;100358.50;5011318;28;20311;-74
2021/01/07 08:05:10;;;;;;;6.37;4.80;;;;;;;2.13;100.00;100361.91;5010567;28;20192;-73
2021/01/07 08:07:36;;;;;;;5.33;4.30;;;;;;;2.09;100.00;100371.44;5011390;28;20571;-74
2021/01/07 08:10:06;;;;;;;6.33;4.57;;;;;;;2.20;100.00;100365.31;5011725;28;20181;-74
2021/01/07 08:12:33;;;;;;;5.90;4.50;;;;;;;2.20;100.00;100368.00;5013298;28;20244;-74
2021/01/07 08:15:04;;;;;;;5.93;4.37;;;;;;;2.24;100.00;100368.38;5016644;28;20268;-74
2021/01/07 08:17:32;;;;;;;5.13;3.77;;;;;;;2.27;100.00;100368.72;5002858;28;20741;-74
2021/01/07 08:20:00;;;;;;;7.13;5.03;;;;;;;2.36;100.00;100375.41;5001914;28;20181;-74
2021/01/07 08:22:29;;;;;;;8.30;6.10;;;;;;;2.36;100.00;100367.34;4982114;28;20227;-74
2021/01/07 08:24:59;;;;;;;7.73;6.13;;;;;;;2.49;100.00;100370.69;4998751;28;20327;-74
2021/01/07 08:27:27;;;;;;;5.87;4.60;;;;;;;2.51;100.00;100370.44;4981617;28;20252;-74
2021/01/07 08:29:57;;;;;;;6.87;5.40;;;;;;;2.40;100.00;100368.53;4982541;28;20223;-74
2021/01/07 08:32:25;;;;;;;7.77;6.00;;;;;;;2.39;100.00;100362.38;4994777;28;20244;-73
2021/01/07 08:34:53;;;;;;;10.40;7.20;;;;;;;2.44;100.00;100364.38;4994513;28;20189;-75
2021/01/07 08:37:22;;;;;;;14.07;7.47;;;;;;;2.50;100.00;100358.91;4994823;28;20306;-74
2021/01/07 08:39:52;;;;;;;14.07;7.00;;;;;;;2.53;100.00;100363.03;5011738;28;20181;-74
2021/01/07 08:42:18;;;;;;;9.90;5.93;;;;;;;2.47;100.00;100363.91;5011370;28;20702;-73
2021/01/07 08:44:47;;;;;;;6.47;4.57;;;;;;;2.35;100.00;100376.47;5027488;28;20191;-73
2021/01/07 08:47:20;;;;;;;10.63;6.10;;;;;;;2.33;100.00;100367.84;5010250;28;20228;-74
2021/01/07 08:49:45;;;;;;;12.03;6.73;;;;;;;2.54;100.00;100359.28;4994910;28;20693;-73
2021/01/07 08:52:11;;;;;;;12.93;7.63;;;;;;;2.52;100.00;100356.00;4994168;28;20221;-73
2021/01/07 08:54:36;;;;;;;8.70;6.20;;;;;;;2.42;100.00;100369.16;4978033;28;20188;-74
2021/01/07 08:57:10;;;;;;;9.37;5.90;;;;;;;2.34;100.00;100358.72;4994209;28;20227;-74
2021/01/07 08:59:39;;;;;;;7.47;5.43;;;;;;;2.46;100.00;100363.09;4978830;28;20250;-73
2021/01/07 09:02:06;;;;;;;6.87;4.50;;;;;;;2.41;100.00;100362.16;5009452;28;20236;-74
2021/01/07 09:04:34;;;;;;;6.03;5.03;;;;;;;2.44;100.00;100357.16;5011268;28;20185;-73
2021/01/07 09:07:19;;;;;;;6.43;4.87;;;;;;;2.34;100.00;100364.09;4977762;28;20224;-74
2021/01/07 09:09:45;;;;;;;7.97;5.20;;;;;;;2.47;100.00;100364.75;4996108;28;20185;-74
2021/01/07 09:12:12;;;;;;;6.40;4.20;;;;;;;2.35;100.00;100365.75;5009796;28;20232;-74
2021/01/07 09:15:09;;;;;;;5.67;4.40;;;;;;;2.40;100.00;100364.00;5010240;28;20276;-73
2021/01/07 09:17:45;;;;;;;5.27;4.33;;;;;;;2.38;100.00;100367.94;5009831;28;20243;-73
2021/01/07 09:20:12;;;;;;;7.77;5.70;;;;;;;2.38;100.00;100368.78;5010052;28;20185;-73
2021/01/07 09:22:38;;;;;;;9.43;5.97;;;;;;;2.28;100.00;100373.03;4993632;28;20635;-73
2021/01/07 09:25:05;;;;;;;9.83;6.70;;;;;;;2.50;100.00;100369.63;5009719;28;20173;-73
2021/01/07 09:27:30;;;;;;;7.37;5.33;;;;;;;2.42;100.00;100366.47;5025804;28;20224;-73
2021/01/07 09:29:57;;;;;;;9.37;5.50;;;;;;;2.52;100.00;100364.06;5009985;28;20588;-73
2021/01/07 09:32:22;;;;;;;5.67;4.30;;;;;;;2.53;100.00;100363.03;5009702;28;20320;-73
2021/01/07 09:34:49;;;;;;;5.13;4.30;;;;;;;2.55;100.00;100364.41;4993387;28;20196;-73
2021/01/07 09:37:21;;;;;;;6.80;5.00;;;;;;;2.74;100.00;100366.78;5009733;28;20617;-74
2021/01/07 09:39:48;;;;;;;7.53;4.90;;;;;;;2.70;100.00;100360.25;4978718;28;20191;-73
2021/01/07 09:42:14;;;;;;;7.53;5.30;;;;;;;2.52;100.00;100364.88;4992534;28;20220;-73
2021/01/07 09:44:39;;;;;;;16.23;7.73;;;;;;;2.55;100.00;100363.59;4993415;28;20239;-73
2021/01/07 09:47:08;;;;;;;11.17;5.80;;;;;;;2.51;100.00;100357.88;4993439;28;20221;-74
2021/01/07 09:49:35;;;;;;;6.03;4.80;;;;;;;2.65;100.00;100371.91;4994359;28;20259;-74
2021/01/07 09:52:03;;;;;;;19.33;11.47;;;;;;;2.74;100.00;100360.63;5009580;28;20236;-73
2021/01/07 09:54:29;;;;;;;5.40;4.10;;;;;;;2.72;100.00;100365.41;4993781;28;20189;-73
2021/01/07 09:56:58;;;;;;;7.47;5.23;;;;;;;2.83;100.00;100354.69;4992787;28;20234;-73
2021/01/07 09:59:24;;;;;;;5.60;4.63;;;;;;;2.80;100.00;100357.84;4993556;28;20670;-72
2021/01/07 10:01:57;;;;;;;4.57;3.93;;;;;;;3.04;100.00;100356.84;5008983;28;20286;-73
2021/01/07 10:04:22;;;;;;;4.33;3.40;;;;;;;2.91;100.00;100351.69;4993802;28;20177;-72
2021/01/07 10:06:51;;;;;;;3.80;3.20;;;;;;;2.83;100.00;100360.06;5009299;28;20228;-73
2021/01/07 10:09:16;;;;;;;4.07;3.17;;;;;;;2.99;100.00;100356.72;5009843;28;20178;-73
2021/01/07 10:11:42;;;;;;;3.37;2.80;;;;;;;2.78;100.00;100362.63;4992873;28;20232;-72
2021/01/07 10:14:08;;;;;;;2.57;2.37;;;;;;;2.87;100.00;100357.75;4961118;28;20184;-74
2021/01/07 10:16:34;;;;;;;2.27;2.07;;;;;;;2.86;100.00;100359.59;5008827;28;20225;-73
2021/01/07 10:19:04;;;;;;;2.97;2.67;;;;;;;2.76;100.00;100362.00;5009527;28;20200;-72
2021/01/07 10:21:32;;;;;;;3.40;2.87;;;;;;;2.75;100.00;100367.63;4993587;28;20232;-73
2021/01/07 10:24:00;;;;;;;3.30;2.93;;;;;;;2.89;100.00;100352.97;4977661;28;20668;-73
2021/01/07 10:26:26;;;;;;;2.70;2.50;;;;;;;3.01;100.00;100351.94;5008821;28;20228;-73
2021/01/07 10:28:51;;;;;;;3.10;2.60;;;;;;;2.76;100.00;100353.16;4992995;28;20204;-73
2021/01/07 10:31:18;;;;;;;4.10;3.20;;;;;;;2.68;100.00;100362.34;5008784;28;20274;-74
2021/01/07 10:33:47;;;;;;;6.37;4.30;;;;;;;2.66;100.00;100357.47;4993223;28;20224;-73
2021/01/07 10:36:16;;;;;;;4.60;3.63;;;;;;;2.84;100.00;100356.34;4993400;28;20690;-73
2021/01/07 10:38:47;;;;;;;6.03;4.10;;;;;;;2.85;100.00;100360.66;4981101;28;20192;-73
2021/01/07 10:41:13;;;;;;;4.10;3.70;;;;;;;2.83;100.00;100352.00;4996048;28;20249;-73
2021/01/07 10:43:42;;;;;;;3.13;2.30;;;;;;;2.51;100.00;100349.84;4997141;28;20192;-73
2021/01/07 10:46:12;;;;;;;4.03;3.40;;;;;;;2.68;100.00;100357.00;4995503;28;20224;-73
2021/01/07 10:48:42;;;;;;;3.83;3.23;;;;;;;2.94;100.00;100350.41;4997049;28;20267;-73
2021/01/07 10:51:08;;;;;;;2.47;2.27;;;;;;;2.93;100.00;100348.75;4995597;28;20231;-73
2021/01/07 10:53:52;;;;;;;2.83;2.60;;;;;;;2.88;100.00;100346.78;4996337;28;20177;-73
2021/01/07 10:56:24;;;;;;;2.50;2.30;;;;;;;2.99;100.00;100348.69;5011560;28;20221;-73
2021/01/07 10:59:12;;;;;;;2.90;2.60;;;;;;;3.08;100.00;100344.59;4996754;28;20187;-73
2021/01/07 11:01:50;;;;;;;2.53;2.27;;;;;;;3.16;100.00;100338.91;5011957;28;20784;-73
2021/01/07 11:04:40;;;;;;;2.63;2.33;;;;;;;2.89;100.00;100336.88;5012369;28;20185;-73
2021/01/07 11:07:29;;;;;;;5.70;3.67;;;;;;;2.80;100.00;100339.09;5011725;28;20221;-73
2021/01/07 11:10:00;;;;;;;3.40;2.83;;;;;;;2.65;100.00;100332.50;5004884;28;20208;-73
2021/01/07 11:12:27;;;;;;;3.27;2.77;;;;;;;2.79;100.00;100325.91;4979248;28;20241;-73
2021/01/07 11:14:57;;;;;;;4.30;3.53;;;;;;;2.87;100.00;100326.38;4995900;28;20559;-73
2021/01/07 11:17:24;;;;;;;3.90;3.50;;;;;;;2.89;100.00;100326.97;4979564;28;20228;-73
2021/01/07 11:19:50;;;;;;;5.00;3.97;;;;;;;2.95;100.00;100326.06;4995762;28;20196;-73
2021/01/07 11:22:20;;;;;;;5.40;4.50;;;;;;;2.83;100.00;100327.06;5027613;28;20286;-73
2021/01/07 11:24:48;;;;;;;4.97;4.00;;;;;;;2.77;100.00;100323.44;4979571;28;20185;-73
2021/01/07 11:27:21;;;;;;;4.73;4.17;;;;;;;2.63;100.00;100321.19;4976587;28;20224;-73
2021/01/07 11:29:50;;;;;;;5.77;4.37;;;;;;;2.66;100.00;100319.94;4977543;28;20182;-73